Time;durP1;ratioP1;P1;durP2;ratioP2;P2;SDS_P1;SDS_P2;PMS_P1;PMS_P2;Temp;Humidity;BMP_temperature;BMP_pressure;BME280_temperature;BME280_humidity;BME280_pressure;Samples;Min_cycle;Max_cycle;Signal;HPM_P1;HPM_P2
2023/12/06 00:00:34;;;;;;;4.10;2.30;;;;;;;;;;5055134;28;20414;-72
2023/12/06 00:03:01;;;;;;;6.20;3.00;;;;;;;;;;5056888;28;20937;-71
2023/12/06 00:05:27;;;;;;;2.43;1.93;;;;;;;;;;5056290;28;20469;-71
2023/12/06 00:07:53;;;;;;;2.53;1.33;;;;;;;;;;5056289;28;20410;-71
2023/12/06 00:10:19;;;;;;;2.07;1.20;;;;;;;;;;5056590;28;20428;-71
2023/12/06 00:12:45;;;;;;;1.63;1.57;;;;;;;;;;5056503;28;20418;-71
2023/12/06 00:15:11;;;;;;;2.33;1.70;;;;;;;;;;5056768;28;20426;-71
2023/12/06 00:17:37;;;;;;;2.63;2.10;;;;;;;;;;5056416;28;20426;-71
2023/12/06 00:23:06;;;;;;;2.03;1.27;;;;;;;;;;5056102;28;20489;-71
2023/12/06 00:25:32;;;;;;;0.63;0.63;;;;;;;;;;5056043;28;20411;-71
2023/12/06 00:27:58;;;;;;;1.83;0.80;;;;;;;;;;5056024;28;20423;-71
2023/12/06 00:30:24;;;;;;;0.97;0.97;;;;;;;;;;5055796;28;20421;-71
2023/12/06 00:32:50;;;;;;;0.70;0.70;;;;;;;;;;5056135;28;20453;-72
2023/12/06 00:35:16;;;;;;;0.83;0.57;;;;;;;;;;5055964;28;20418;-71
2023/12/06 00:37:42;;;;;;;4.23;1.33;;;;;;;;;;5054529;28;20438;-71
2023/12/06 00:40:08;;;;;;;2.13;1.17;;;;;;;;;;5055916;28;20445;-71
2023/12/06 00:42:34;;;;;;;0.80;0.80;;;;;;;;;;5055838;28;20478;-72
2023/12/06 00:45:00;;;;;;;3.33;1.20;;;;;;;;;;5056183;28;20509;-71
2023/12/06 00:47:26;;;;;;;0.93;0.90;;;;;;;;;;5056163;28;20418;-71
2023/12/06 00:49:52;;;;;;;0.77;0.77;;;;;;;;;;5055756;28;20488;-71
2023/12/06 00:52:18;;;;;;;1.20;0.83;;;;;;;;;;5055554;28;20480;-72
2023/12/06 00:54:45;;;;;;;1.13;0.60;;;;;;;;;;5055559;28;20418;-71
2023/12/06 00:57:11;;;;;;;0.90;0.77;;;;;;;;;;5055755;28;20433;-71
2023/12/06 00:59:37;;;;;;;4.63;1.07;;;;;;;;;;5055627;28;20415;-72
2023/12/06 01:02:03;;;;;;;1.37;1.07;;;;;;;;;;5055572;28;20482;-72
2023/12/06 01:04:29;;;;;;;1.03;0.70;;;;;;;;;;5055353;28;20466;-72
2023/12/06 01:06:55;;;;;;;4.53;0.90;;;;;;;;;;5055339;28;20437;-71
2023/12/06 01:09:21;;;;;;;0.93;0.93;;;;;;;;;;5055484;28;20548;-71
2023/12/06 01:11:47;;;;;;;4.93;1.33;;;;;;;;;;5054605;28;20423;-71
2023/12/06 01:14:13;;;;;;;2.53;0.90;;;;;;;;;;5055335;28;20419;-71
2023/12/06 01:16:39;;;;;;;4.00;1.10;;;;;;;;;;5053775;28;20433;-71
2023/12/06 01:19:05;;;;;;;2.73;1.23;;;;;;;;;;5055339;28;20454;-72
2023/12/06 01:21:32;;;;;;;1.33;0.93;;;;;;;;;;5055454;28;20490;-71
2023/12/06 01:23:58;;;;;;;7.80;1.10;;;;;;;;;;5054928;28;20437;-71
2023/12/06 01:26:24;;;;;;;1.50;0.97;;;;;;;;;;5054897;28;20505;-71
2023/12/06 01:28:50;;;;;;;4.10;1.20;;;;;;;;;;5055086;28;20433;-71
2023/12/06 01:31:16;;;;;;;1.47;0.90;;;;;;;;;;5054795;28;20426;-71
2023/12/06 01:33:42;;;;;;;2.07;0.60;;;;;;;;;;5054960;28;20891;-71
2023/12/06 01:36:08;;;;;;;4.40;0.80;;;;;;;;;;5054939;28;20952;-71
2023/12/06 01:38:34;;;;;;;1.40;1.00;;;;;;;;;;5054940;28;20442;-71
2023/12/06 01:41:00;;;;;;;1.70;0.50;;;;;;;;;;5054613;28;20442;-71
2023/12/06 01:43:26;;;;;;;2.73;1.10;;;;;;;;;;5053245;28;20442;-71
2023/12/06 01:45:52;;;;;;;2.17;1.00;;;;;;;;;;5055519;28;20418;-71
2023/12/06 01:48:19;;;;;;;2.53;1.10;;;;;;;;;;5054665;28;20477;-71
2023/12/06 01:50:45;;;;;;;2.60;0.83;;;;;;;;;;5054669;28;20411;-71
2023/12/06 01:53:11;;;;;;;4.70;4.30;;;;;;;;;;5054351;28;20949;-71
2023/12/06 01:55:37;;;;;;;3.20;1.10;;;;;;;;;;5054546;28;20430;-71
2023/12/06 01:58:03;;;;;;;4.80;0.97;;;;;;;;;;5054569;28;20950;-71
2023/12/06 02:00:30;;;;;;;1.30;1.20;;;;;;;;;;5054534;28;20430;-71
2023/12/06 02:02:56;;;;;;;2.10;1.10;;;;;;;;;;5054348;28;20473;-71
2023/12/06 02:05:22;;;;;;;4.93;1.50;;;;;;;;;;5054082;28;20462;-71
2023/12/06 02:07:49;;;;;;;1.63;1.20;;;;;;;;;;5053985;28;20431;-71
2023/12/06 02:10:15;;;;;;;1.03;0.90;;;;;;;;;;5054350;28;20544;-71
2023/12/06 02:12:41;;;;;;;1.20;1.17;;;;;;;;;;5054228;28;20460;-71
2023/12/06 02:15:08;;;;;;;0.80;0.80;;;;;;;;;;5054684;28;20749;-71
2023/12/06 02:17:34;;;;;;;2.13;0.87;;;;;;;;;;5054051;28;20434;-72
2023/12/06 02:20:01;;;;;;;1.57;1.20;;;;;;;;;;5053734;28;20459;-72
2023/12/06 02:22:27;;;;;;;3.30;1.20;;;;;;;;;;5053438;28;20974;-71
2023/12/06 02:24:56;;;;;;;1.50;0.90;;;;;;;;;;5053932;28;20552;-70
2023/12/06 02:27:22;;;;;;;1.00;1.00;;;;;;;;;;5053672;28;20909;-71
2023/12/06 02:29:48;;;;;;;0.63;0.63;;;;;;;;;;5053972;28;20429;-71
2023/12/06 02:32:14;;;;;;;5.60;0.93;;;;;;;;;;5054143;28;20450;-71
2023/12/06 02:34:40;;;;;;;7.90;1.13;;;;;;;;;;5053850;28;20446;-71
2023/12/06 02:37:08;;;;;;;1.20;1.10;;;;;;;;;;5053765;28;20423;-72
2023/12/06 02:39:39;;;;;;;0.97;0.70;;;;;;;;;;5053754;28;20762;-71
2023/12/06 02:42:05;;;;;;;2.53;0.60;;;;;;;;;;5053412;28;20500;-71
2023/12/06 02:44:31;;;;;;;1.67;1.10;;;;;;;;;;5053560;28;20415;-71
2023/12/06 02:46:57;;;;;;;1.50;1.33;;;;;;;;;;5053390;28;20432;-71
2023/12/06 02:49:23;;;;;;;0.83;0.73;;;;;;;;;;5053525;28;20429;-71
2023/12/06 02:51:49;;;;;;;3.80;0.60;;;;;;;;;;5054343;28;20431;-71
2023/12/06 02:54:15;;;;;;;0.80;0.63;;;;;;;;;;5053292;28;20411;-71
2023/12/06 02:56:41;;;;;;;1.13;0.87;;;;;;;;;;5053547;28;20429;-71
2023/12/06 02:59:07;;;;;;;1.30;1.30;;;;;;;;;;5053457;28;20972;-71
2023/12/06 03:01:33;;;;;;;5.10;0.90;;;;;;;;;;5053243;28;21013;-71
2023/12/06 03:03:59;;;;;;;2.03;0.83;;;;;;;;;;5052955;28;20480;-71
2023/12/06 03:06:25;;;;;;;2.03;0.87;;;;;;;;;;5053097;28;20415;-71
2023/12/06 03:08:52;;;;;;;5.10;1.13;;;;;;;;;;5053379;28;20533;-71
2023/12/06 03:11:18;;;;;;;1.10;0.83;;;;;;;;;;5053088;28;20980;-71
2023/12/06 03:13:44;;;;;;;4.07;1.20;;;;;;;;;;5052917;28;20418;-71
2023/12/06 03:16:10;;;;;;;0.60;0.60;;;;;;;;;;5053162;28;20453;-71
2023/12/06 03:18:36;;;;;;;1.73;1.00;;;;;;;;;;5053532;28;20417;-72
2023/12/06 03:21:02;;;;;;;2.00;1.17;;;;;;;;;;5053067;28;20886;-71
2023/12/06 03:23:28;;;;;;;2.80;1.27;;;;;;;;;;5053166;28;20919;-72
2023/12/06 03:25:54;;;;;;;1.23;1.13;;;;;;;;;;5053190;28;20465;-72
2023/12/06 03:28:20;;;;;;;1.63;0.90;;;;;;;;;;5052906;28;20414;-71
2023/12/06 03:30:45;;;;;;;1.73;1.13;;;;;;;;;;5052839;28;20415;-71
2023/12/06 03:33:11;;;;;;;1.57;1.47;;;;;;;;;;5052704;28;20803;-71
2023/12/06 03:35:37;;;;;;;1.40;0.80;;;;;;;;;;5055385;28;20422;-71
2023/12/06 03:38:03;;;;;;;1.07;0.70;;;;;;;;;;5056909;28;20476;-72
2023/12/06 03:40:29;;;;;;;0.97;0.97;;;;;;;;;;5056920;28;20495;-70
2023/12/06 03:42:55;;;;;;;1.87;1.50;;;;;;;;;;5056620;28;20473;-71
2023/12/06 03:45:22;;;;;;;2.40;1.63;;;;;;;;;;5057327;28;20882;-71
2023/12/06 03:47:48;;;;;;;1.30;1.20;;;;;;;;;;5055449;28;20434;-71
2023/12/06 03:50:14;;;;;;;1.80;0.93;;;;;;;;;;5056944;28;20529;-71
2023/12/06 03:52:40;;;;;;;4.00;0.70;;;;;;;;;;5056858;28;20472;-71
2023/12/06 03:55:07;;;;;;;0.60;0.60;;;;;;;;;;5055391;28;20491;-71
2023/12/06 03:57:33;;;;;;;2.30;1.40;;;;;;;;;;5057039;28;20422;-72
2023/12/06 03:59:59;;;;;;;0.70;0.70;;;;;;;;;;5056940;28;20418;-71
2023/12/06 04:02:25;;;;;;;0.90;0.90;;;;;;;;;;5056478;28;20485;-71
2023/12/06 04:04:51;;;;;;;0.80;0.80;;;;;;;;;;5056284;28;20477;-71
2023/12/06 04:07:17;;;;;;;0.80;0.80;;;;;;;;;;5056467;28;20434;-71
2023/12/06 04:09:42;;;;;;;5.90;1.20;;;;;;;;;;5056608;28;20414;-71
2023/12/06 04:12:08;;;;;;;6.63;1.73;;;;;;;;;;5056743;28;20816;-71
2023/12/06 04:14:34;;;;;;;2.13;1.00;;;;;;;;;;5056208;28;20782;-71
2023/12/06 04:17:00;;;;;;;4.20;0.83;;;;;;;;;;5056539;28;20433;-71
2023/12/06 04:19:26;;;;;;;0.80;0.80;;;;;;;;;;5056447;28;20456;-71
2023/12/06 04:21:52;;;;;;;4.40;0.70;;;;;;;;;;5056217;28;20465;-71
2023/12/06 04:24:18;;;;;;;1.43;1.00;;;;;;;;;;5055988;28;20429;-71
2023/12/06 04:26:44;;;;;;;4.40;0.87;;;;;;;;;;5056098;28;20407;-71
2023/12/06 04:29:10;;;;;;;0.63;0.63;;;;;;;;;;5056063;28;20419;-71
2023/12/06 04:31:37;;;;;;;1.13;1.13;;;;;;;;;;5056180;28;20973;-71
2023/12/06 04:34:03;;;;;;;0.60;0.60;;;;;;;;;;5056034;28;20414;-71
2023/12/06 04:36:29;;;;;;;0.57;0.57;;;;;;;;;;5055784;28;20495;-71
2023/12/06 04:38:55;;;;;;;2.13;1.20;;;;;;;;;;5055807;28;20422;-72
2023/12/06 04:41:21;;;;;;;2.50;0.90;;;;;;;;;;5056405;28;20587;-71
2023/12/06 04:43:47;;;;;;;6.00;1.00;;;;;;;;;;5055928;28;20415;-71
2023/12/06 04:46:13;;;;;;;0.97;0.97;;;;;;;;;;5054690;28;20509;-71
2023/12/06 04:48:38;;;;;;;0.77;0.70;;;;;;;;;;5055878;28;20411;-71
2023/12/06 04:51:04;;;;;;;1.03;0.90;;;;;;;;;;5055873;28;20418;-71
2023/12/06 04:53:30;;;;;;;1.13;0.77;;;;;;;;;;5055521;28;20502;-71
2023/12/06 04:55:56;;;;;;;5.73;0.90;;;;;;;;;;5055575;28;20535;-71
2023/12/06 04:58:22;;;;;;;0.87;0.57;;;;;;;;;;5054111;28;20441;-70
2023/12/06 05:00:50;;;;;;;1.47;0.77;;;;;;;;;;5055686;28;20426;-71
2023/12/06 05:03:16;;;;;;;0.70;0.70;;;;;;;;;;5055167;28;20995;-71
2023/12/06 05:05:42;;;;;;;0.87;0.87;;;;;;;;;;5055138;28;20458;-71
2023/12/06 05:08:08;;;;;;;0.80;0.80;;;;;;;;;;5055236;28;20426;-71
2023/12/06 05:10:34;;;;;;;1.53;0.80;;;;;;;;;;5055216;28;20510;-71
2023/12/06 05:13:00;;;;;;;0.57;0.57;;;;;;;;;;5055277;28;20417;-71
2023/12/06 05:15:26;;;;;;;0.80;0.60;;;;;;;;;;5055118;28;20425;-71
2023/12/06 05:17:52;;;;;;;0.97;0.70;;;;;;;;;;5055012;28;20501;-71
2023/12/06 05:20:18;;;;;;;0.97;0.97;;;;;;;;;;5054991;28;20418;-71
2023/12/06 05:22:44;;;;;;;0.97;0.93;;;;;;;;;;5054898;28;20478;-71
2023/12/06 05:25:10;;;;;;;1.30;0.60;;;;;;;;;;5055184;28;20510;-71
2023/12/06 05:27:36;;;;;;;0.47;0.47;;;;;;;;;;5055067;28;20898;-71
2023/12/06 05:30:02;;;;;;;1.90;0.67;;;;;;;;;;5053551;28;20418;-71
2023/12/06 05:32:28;;;;;;;0.70;0.70;;;;;;;;;;5055063;28;20476;-70
2023/12/06 05:34:54;;;;;;;1.50;0.83;;;;;;;;;;5054809;28;20415;-71
2023/12/06 05:37:20;;;;;;;0.60;0.60;;;;;;;;;;5054744;28;20426;-71
2023/12/06 05:39:46;;;;;;;0.80;0.60;;;;;;;;;;5054848;28;20438;-71
2023/12/06 05:42:12;;;;;;;0.57;0.57;;;;;;;;;;5054835;28;20474;-71
2023/12/06 05:44:38;;;;;;;0.67;0.67;;;;;;;;;;5054763;28;20410;-71
2023/12/06 05:47:04;;;;;;;1.93;0.97;;;;;;;;;;5054491;28;20423;-71
2023/12/06 05:49:30;;;;;;;0.80;0.80;;;;;;;;;;5054540;28;20398;-71
2023/12/06 05:51:56;;;;;;;1.90;0.90;;;;;;;;;;5054433;28;20407;-71
2023/12/06 05:54:22;;;;;;;0.80;0.80;;;;;;;;;;5054587;28;20406;-71
2023/12/06 05:56:48;;;;;;;1.13;0.83;;;;;;;;;;5054084;28;20524;-71
2023/12/06 05:59:14;;;;;;;1.00;1.00;;;;;;;;;;5054764;28;20419;-71
2023/12/06 06:01:40;;;;;;;0.83;0.83;;;;;;;;;;5053808;28;20474;-71
2023/12/06 06:04:06;;;;;;;1.90;0.80;;;;;;;;;;5052331;28;20481;-71
2023/12/06 06:06:36;;;;;;;1.33;0.87;;;;;;;;;;5053985;28;20836;-71
2023/12/06 06:09:02;;;;;;;1.17;1.07;;;;;;;;;;5054105;28;20410;-70
2023/12/06 06:11:28;;;;;;;2.40;1.70;;;;;;;;;;5054314;28;20423;-71
2023/12/06 06:13:54;;;;;;;1.30;1.20;;;;;;;;;;5053625;28;20417;-71
2023/12/06 06:16:20;;;;;;;2.07;1.20;;;;;;;;;;5053883;28;20829;-72
2023/12/06 06:18:46;;;;;;;0.83;0.83;;;;;;;;;;5054408;28;20501;-71
2023/12/06 06:21:12;;;;;;;1.00;1.00;;;;;;;;;;5053892;28;20774;-72
2023/12/06 06:23:38;;;;;;;1.60;1.50;;;;;;;;;;5054056;28;20509;-72
2023/12/06 06:26:04;;;;;;;1.20;1.20;;;;;;;;;;5053788;28;20576;-72
2023/12/06 06:28:30;;;;;;;1.07;1.00;;;;;;;;;;5053555;28;20929;-71
2023/12/06 06:30:56;;;;;;;1.43;0.93;;;;;;;;;;5053715;28;20414;-71
2023/12/06 06:33:22;;;;;;;1.20;1.20;;;;;;;;;;5053649;28;20503;-72
2023/12/06 06:35:48;;;;;;;1.00;1.00;;;;;;;;;;5053795;28;20920;-71
2023/12/06 06:38:14;;;;;;;3.40;1.10;;;;;;;;;;5053443;28;20960;-72
2023/12/06 06:40:40;;;;;;;2.43;1.23;;;;;;;;;;5053475;28;20960;-71
2023/12/06 06:43:06;;;;;;;1.40;1.33;;;;;;;;;;5053395;28;20813;-72
2023/12/06 06:45:32;;;;;;;0.83;0.70;;;;;;;;;;5052056;28;20523;-72
2023/12/06 06:47:58;;;;;;;3.90;1.10;;;;;;;;;;5053962;28;20920;-72
2023/12/06 06:50:24;;;;;;;2.17;2.07;;;;;;;;;;5053309;28;20450;-72
2023/12/06 06:52:50;;;;;;;3.10;2.47;;;;;;;;;;5053511;28;20449;-72
2023/12/06 06:55:16;;;;;;;7.23;4.47;;;;;;;;;;5053108;28;20450;-72
2023/12/06 06:57:42;;;;;;;9.60;6.80;;;;;;;;;;5053277;28;20426;-72
2023/12/06 07:00:10;;;;;;;3.33;3.03;;;;;;;;;;5053348;28;20429;-72
2023/12/06 07:02:36;;;;;;;3.33;1.97;;;;;;;;;;5052995;28;20489;-72
2023/12/06 07:05:02;;;;;;;1.83;0.97;;;;;;;;;;5053630;28;20454;-72
2023/12/06 07:07:28;;;;;;;0.87;0.87;;;;;;;;;;5053294;28;20422;-72
2023/12/06 07:09:54;;;;;;;1.37;0.90;;;;;;;;;;5052553;28;20950;-72
2023/12/06 07:12:20;;;;;;;1.13;1.13;;;;;;;;;;5051725;28;20996;-71
2023/12/06 07:14:46;;;;;;;2.50;1.90;;;;;;;;;;5053307;28;20462;-71
2023/12/06 07:17:12;;;;;;;1.47;1.37;;;;;;;;;;5053262;28;20449;-73
2023/12/06 07:19:38;;;;;;;1.00;1.00;;;;;;;;;;5052947;28;20812;-71
2023/12/06 07:22:06;;;;;;;0.63;0.60;;;;;;;;;;5053693;28;20482;-71
2023/12/06 07:24:32;;;;;;;1.03;1.03;;;;;;;;;;5052796;28;20910;-71
2023/12/06 07:26:58;;;;;;;3.23;1.50;;;;;;;;;;5052803;28;20428;-71
2023/12/06 07:29:24;;;;;;;1.13;0.87;;;;;;;;;;5052840;28;20450;-71
2023/12/06 07:31:50;;;;;;;2.63;0.97;;;;;;;;;;5052528;28;20967;-71
2023/12/06 07:34:17;;;;;;;0.90;0.80;;;;;;;;;;5052634;28;20907;-73
2023/12/06 07:36:43;;;;;;;0.80;0.80;;;;;;;;;;5051466;28;20517;-71
2023/12/06 07:39:10;;;;;;;1.20;1.10;;;;;;;;;;5052651;28;20422;-72
2023/12/06 07:41:36;;;;;;;1.13;1.13;;;;;;;;;;5052407;28;20461;-72
2023/12/06 07:44:02;;;;;;;1.07;1.07;;;;;;;;;;5051224;28;20488;-71
2023/12/06 07:46:28;;;;;;;10.30;1.33;;;;;;;;;;5052399;28;20458;-71
2023/12/06 07:48:54;;;;;;;3.40;2.03;;;;;;;;;;5052846;28;20834;-71
2023/12/06 07:51:20;;;;;;;1.50;1.23;;;;;;;;;;5052509;28;20429;-72
2023/12/06 07:53:46;;;;;;;2.83;1.37;;;;;;;;;;5052769;28;20572;-71
2023/12/06 07:56:12;;;;;;;1.40;1.30;;;;;;;;;;5052581;28;20903;-71
2023/12/06 07:58:38;;;;;;;1.97;1.50;;;;;;;;;;5052557;28;20422;-72
2023/12/06 08:01:05;;;;;;;4.23;2.00;;;;;;;;;;5052474;28;20450;-72
2023/12/06 08:03:31;;;;;;;2.67;1.80;;;;;;;;;;5052549;28;20440;-71
2023/12/06 08:05:59;;;;;;;2.53;1.47;;;;;;;;;;5053098;28;20410;-71
2023/12/06 08:08:25;;;;;;;1.10;1.00;;;;;;;;;;5053109;28;20418;-71
2023/12/06 08:10:52;;;;;;;1.60;1.23;;;;;;;;;;5052393;28;20423;-72
2023/12/06 08:13:18;;;;;;;3.10;1.40;;;;;;;;;;5052511;28;20422;-71
2023/12/06 08:15:45;;;;;;;8.27;1.50;;;;;;;;;;5052484;28;20806;-71
2023/12/06 08:18:11;;;;;;;1.93;1.53;;;;;;;;;;5052645;28;20418;-71
2023/12/06 08:20:37;;;;;;;4.50;1.40;;;;;;;;;;5053395;28;20441;-71
2023/12/06 08:23:03;;;;;;;2.73;2.27;;;;;;;;;;5056163;28;20470;-71
2023/12/06 08:25:29;;;;;;;3.93;1.57;;;;;;;;;;5056175;28;20985;-71
2023/12/06 08:27:55;;;;;;;5.10;2.70;;;;;;;;;;5056462;28;20556;-71
2023/12/06 08:30:21;;;;;;;1.63;1.53;;;;;;;;;;5056196;28;20421;-71
2023/12/06 08:32:47;;;;;;;7.50;1.40;;;;;;;;;;5056487;28;20921;-71
2023/12/06 08:35:13;;;;;;;3.00;1.83;;;;;;;;;;5056133;28;20507;-72
2023/12/06 08:37:40;;;;;;;1.73;1.53;;;;;;;;;;5056137;28;20418;-71
2023/12/06 08:40:08;;;;;;;1.17;1.17;;;;;;;;;;5056276;28;20418;-71
2023/12/06 08:42:35;;;;;;;1.90;1.90;;;;;;;;;;5055644;28;20496;-71
2023/12/06 08:45:00;;;;;;;3.70;2.70;;;;;;;;;;5055927;28;20456;-71
2023/12/06 08:47:26;;;;;;;5.60;3.33;;;;;;;;;;5055721;28;20411;-72
2023/12/06 08:49:52;;;;;;;1.60;1.60;;;;;;;;;;5055606;28;20419;-71
2023/12/06 08:52:18;;;;;;;6.30;4.47;;;;;;;;;;5055533;28;20417;-71
2023/12/06 08:54:44;;;;;;;12.60;7.43;;;;;;;;;;5055778;28;20505;-71
2023/12/06 08:57:11;;;;;;;6.70;3.43;;;;;;;;;;5055477;28;20421;-72
2023/12/06 09:02:42;;;;;;;3.37;3.03;;;;;;;;;;5055072;28;20798;-72
2023/12/06 09:05:11;;;;;;;1.30;1.20;;;;;;;;;;5055104;28;20528;-72
2023/12/06 09:07:37;;;;;;;3.07;1.80;;;;;;;;;;5055428;28;20845;-71
2023/12/06 09:10:03;;;;;;;2.30;1.70;;;;;;;;;;5054977;28;20414;-71
2023/12/06 09:12:29;;;;;;;2.00;1.90;;;;;;;;;;5053721;28;20529;-71
2023/12/06 09:14:55;;;;;;;3.60;1.30;;;;;;;;;;5055710;28;20454;-72
2023/12/06 09:17:21;;;;;;;1.10;1.10;;;;;;;;;;5054898;28;20433;-71
2023/12/06 09:19:48;;;;;;;4.70;1.13;;;;;;;;;;5054867;28;20422;-72
2023/12/06 09:22:15;;;;;;;1.37;1.00;;;;;;;;;;5054972;28;20512;-72
2023/12/06 09:24:42;;;;;;;1.57;1.47;;;;;;;;;;5054821;28;20465;-72
2023/12/06 09:27:08;;;;;;;1.23;1.13;;;;;;;;;;5055051;28;20434;-71
2023/12/06 09:29:34;;;;;;;1.60;1.17;;;;;;;;;;5055052;28;20418;-71
2023/12/06 09:32:00;;;;;;;2.63;2.13;;;;;;;;;;5054397;28;20419;-71
2023/12/06 09:34:26;;;;;;;4.10;1.47;;;;;;;;;;5054686;28;20415;-72
2023/12/06 09:36:52;;;;;;;3.33;1.73;;;;;;;;;;5054569;28;20929;-72
2023/12/06 09:39:20;;;;;;;5.33;2.77;;;;;;;;;;5054542;28;20906;-72
2023/12/06 09:41:46;;;;;;;1.30;1.30;;;;;;;;;;5054597;28;20458;-71
2023/12/06 09:44:12;;;;;;;1.50;1.13;;;;;;;;;;5054387;28;20488;-71
2023/12/06 09:46:38;;;;;;;0.87;0.87;;;;;;;;;;5054346;28;20411;-71
2023/12/06 09:49:04;;;;;;;1.60;1.20;;;;;;;;;;5054530;28;20476;-71
2023/12/06 09:51:30;;;;;;;1.07;1.07;;;;;;;;;;5054515;28;20422;-72
2023/12/06 09:53:56;;;;;;;1.77;1.10;;;;;;;;;;5054228;28;20887;-71
2023/12/06 09:56:23;;;;;;;1.73;1.10;;;;;;;;;;5054113;28;20429;-71
2023/12/06 09:58:49;;;;;;;1.03;1.03;;;;;;;;;;5054167;28;20438;-71
2023/12/06 10:01:15;;;;;;;1.90;1.17;;;;;;;;;;5054216;28;20919;-71
2023/12/06 10:03:41;;;;;;;3.03;1.23;;;;;;;;;;5054071;28;20466;-71
2023/12/06 10:06:08;;;;;;;1.70;0.97;;;;;;;;;;5054235;28;20395;-71
2023/12/06 10:08:34;;;;;;;1.00;1.00;;;;;;;;;;5054184;28;20486;-71
2023/12/06 10:11:07;;;;;;;1.00;1.00;;;;;;;;;;5054037;28;20410;-72
2023/12/06 10:13:34;;;;;;;1.33;1.20;;;;;;;;;;5053776;28;20951;-71
2023/12/06 10:16:00;;;;;;;3.20;2.10;;;;;;;;;;5054138;28;20779;-72
2023/12/06 10:18:27;;;;;;;1.37;1.37;;;;;;;;;;5054020;28;20444;-71
2023/12/06 10:20:53;;;;;;;1.70;1.60;;;;;;;;;;5053652;28;20415;-71
2023/12/06 10:23:19;;;;;;;10.63;1.97;;;;;;;;;;5053876;28;20497;-71
2023/12/06 10:25:49;;;;;;;1.17;1.17;;;;;;;;;;5053705;28;20414;-71
2023/12/06 10:28:17;;;;;;;1.83;1.40;;;;;;;;;;5053842;28;20410;-71
2023/12/06 10:30:43;;;;;;;6.57;3.87;;;;;;;;;;5053341;28;20941;-71
2023/12/06 10:33:10;;;;;;;1.33;1.33;;;;;;;;;;5053503;28;20926;-71
2023/12/06 10:35:36;;;;;;;1.70;0.93;;;;;;;;;;5053738;28;20415;-71
2023/12/06 10:38:03;;;;;;;0.93;0.93;;;;;;;;;;5053488;28;20426;-71
2023/12/06 10:40:29;;;;;;;2.40;1.80;;;;;;;;;;5053606;28;20402;-71
2023/12/06 10:43:01;;;;;;;2.10;1.87;;;;;;;;;;5051816;28;20478;-71
2023/12/06 10:45:27;;;;;;;1.73;1.40;;;;;;;;;;5052646;28;20390;-71
2023/12/06 10:47:55;;;;;;;1.93;1.83;;;;;;;;;;5053876;28;20422;-71
2023/12/06 10:50:21;;;;;;;1.73;1.20;;;;;;;;;;5053059;28;20413;-71
2023/12/06 10:52:48;;;;;;;9.40;2.10;;;;;;;;;;5053643;28;20414;-71
2023/12/06 10:55:17;;;;;;;1.60;1.60;;;;;;;;;;5052965;28;20409;-71
2023/12/06 10:57:43;;;;;;;5.37;4.87;;;;;;;;;;5053351;28;20422;-71
2023/12/06 11:00:10;;;;;;;3.13;2.93;;;;;;;;;;5053031;28;20440;-71
2023/12/06 11:02:36;;;;;;;2.10;1.70;;;;;;;;;;5052912;28;20477;-71
2023/12/06 11:05:05;;;;;;;1.73;1.30;;;;;;;;;;5052847;28;20823;-71
2023/12/06 11:07:40;;;;;;;1.30;1.30;;;;;;;;;;5051382;28;20887;-71
2023/12/06 11:10:10;;;;;;;1.10;1.10;;;;;;;;;;5052779;28;20445;-71
2023/12/06 11:12:42;;;;;;;1.17;1.13;;;;;;;;;;5052960;28;20436;-71
2023/12/06 11:15:21;;;;;;;6.00;5.07;;;;;;;;;;5053124;28;20420;-71
2023/12/06 11:18:01;;;;;;;4.33;3.93;;;;;;;;;;5053066;28;20430;-71
2023/12/06 11:20:27;;;;;;;3.03;1.93;;;;;;;;;;5053206;28;20433;-71
2023/12/06 11:22:53;;;;;;;1.57;1.40;;;;;;;;;;5052479;28;20494;-71
2023/12/06 11:25:20;;;;;;;3.83;3.50;;;;;;;;;;5052582;28;20478;-71
2023/12/06 11:27:46;;;;;;;38.97;18.27;;;;;;;;;;5052910;28;20424;-71
2023/12/06 11:30:16;;;;;;;8.87;6.30;;;;;;;;;;5052618;28;20418;-71
2023/12/06 11:32:43;;;;;;;45.00;21.97;;;;;;;;;;5052751;28;20898;-71
2023/12/06 11:35:09;;;;;;;41.63;20.80;;;;;;;;;;5052644;28;20476;-71
2023/12/06 11:37:35;;;;;;;14.87;9.70;;;;;;;;;;5052579;28;20418;-71
2023/12/06 11:40:08;;;;;;;7.83;7.07;;;;;;;;;;5052777;28;20422;-71
2023/12/06 11:42:37;;;;;;;4.67;4.47;;;;;;;;;;5053022;28;20462;-71
2023/12/06 11:45:05;;;;;;;11.90;9.13;;;;;;;;;;5052792;28;20505;-71
2023/12/06 11:47:34;;;;;;;5.80;5.40;;;;;;;;;;5052606;28;20418;-71
2023/12/06 11:53:05;;;;;;;1.27;1.27;;;;;;;;;;5052846;28;20393;-71
2023/12/06 11:55:31;;;;;;;3.03;2.93;;;;;;;;;;5053238;28;20418;-71
2023/12/06 11:58:00;;;;;;;6.13;5.67;;;;;;;;;;5056587;28;20406;-71
2023/12/06 12:00:27;;;;;;;3.93;3.73;;;;;;;;;;5056516;28;20418;-71
2023/12/06 12:02:54;;;;;;;5.27;4.97;;;;;;;;;;5056575;28;20469;-71
2023/12/06 12:05:21;;;;;;;2.60;1.67;;;;;;;;;;5056623;28;20462;-71
2023/12/06 12:07:47;;;;;;;3.87;3.40;;;;;;;;;;5056804;28;20881;-71
2023/12/06 12:10:13;;;;;;;4.57;4.33;;;;;;;;;;5056644;28;20917;-71
2023/12/06 12:12:39;;;;;;;7.17;6.67;;;;;;;;;;5056279;28;20434;-71
2023/12/06 12:15:05;;;;;;;5.33;4.93;;;;;;;;;;5056397;28;20414;-72
2023/12/06 12:17:31;;;;;;;18.47;12.17;;;;;;;;;;5056394;28;20438;-71
2023/12/06 12:19:57;;;;;;;9.43;6.60;;;;;;;;;;5056411;28;20914;-71
2023/12/06 12:22:23;;;;;;;5.13;4.73;;;;;;;;;;5056199;28;20521;-71
2023/12/06 12:24:51;;;;;;;5.50;4.33;;;;;;;;;;5056104;28;20938;-71
2023/12/06 12:27:18;;;;;;;5.90;4.03;;;;;;;;;;5056731;28;20453;-71
2023/12/06 12:29:45;;;;;;;36.50;18.73;;;;;;;;;;5055900;28;20414;-71
2023/12/06 12:32:11;;;;;;;32.50;17.23;;;;;;;;;;5055858;28;20446;-71
2023/12/06 12:34:37;;;;;;;12.00;5.43;;;;;;;;;;5055944;28;20441;-71
2023/12/06 12:37:03;;;;;;;4.00;3.60;;;;;;;;;;5056136;28;20422;-71
2023/12/06 12:39:30;;;;;;;1.80;1.70;;;;;;;;;;5056123;28;20941;-71
2023/12/06 12:41:56;;;;;;;6.93;1.53;;;;;;;;;;5055691;28;20458;-71
2023/12/06 12:44:22;;;;;;;0.80;0.80;;;;;;;;;;5055993;28;20434;-71
2023/12/06 12:46:49;;;;;;;1.30;1.20;;;;;;;;;;5055669;28;20422;-72
2023/12/06 12:49:15;;;;;;;1.10;1.10;;;;;;;;;;5055663;28;20426;-71
2023/12/06 12:51:42;;;;;;;1.10;1.10;;;;;;;;;;5055672;28;20421;-71
2023/12/06 12:54:14;;;;;;;1.33;1.33;;;;;;;;;;5055336;28;20509;-71
2023/12/06 12:56:40;;;;;;;3.90;3.63;;;;;;;;;;5056305;28;20488;-72
2023/12/06 12:59:06;;;;;;;3.97;3.47;;;;;;;;;;5055745;28;20407;-71
2023/12/06 13:01:32;;;;;;;2.80;2.60;;;;;;;;;;5055057;28;20426;-71
2023/12/06 13:03:59;;;;;;;1.50;1.40;;;;;;;;;;5055357;28;20454;-71
2023/12/06 13:06:26;;;;;;;1.47;1.47;;;;;;;;;;5055462;28;20427;-71
2023/12/06 13:08:57;;;;;;;1.60;1.33;;;;;;;;;;5054919;28;20414;-71
2023/12/06 13:11:23;;;;;;;3.17;3.07;;;;;;;;;;5054868;28;20453;-71
2023/12/06 13:13:49;;;;;;;4.10;3.90;;;;;;;;;;5055525;28;20454;-71
2023/12/06 13:16:15;;;;;;;1.70;1.70;;;;;;;;;;5055164;28;20419;-71
2023/12/06 13:18:41;;;;;;;2.30;2.10;;;;;;;;;;5054831;28;20418;-71
2023/12/06 13:21:07;;;;;;;10.13;5.67;;;;;;;;;;5055039;28;20411;-71
2023/12/06 13:23:35;;;;;;;2.80;2.70;;;;;;;;;;5054890;28;20466;-71
2023/12/06 13:26:01;;;;;;;2.20;2.10;;;;;;;;;;5053676;28;20449;-71
2023/12/06 13:28:27;;;;;;;7.20;4.53;;;;;;;;;;5054878;28;20472;-71
2023/12/06 13:30:53;;;;;;;3.17;2.97;;;;;;;;;;5054814;28;20813;-71
2023/12/06 13:33:19;;;;;;;2.97;2.50;;;;;;;;;;5054912;28;20433;-71
2023/12/06 13:35:45;;;;;;;2.90;2.80;;;;;;;;;;5055419;28;20411;-71
2023/12/06 13:38:12;;;;;;;2.27;2.17;;;;;;;;;;5054935;28;20415;-71
2023/12/06 13:40:38;;;;;;;5.30;4.43;;;;;;;;;;5054534;28;20406;-71
2023/12/06 13:43:05;;;;;;;3.70;2.67;;;;;;;;;;5055239;28;20489;-71
2023/12/06 13:45:31;;;;;;;2.23;2.13;;;;;;;;;;5054765;28;20883;-71
2023/12/06 13:47:57;;;;;;;1.80;1.80;;;;;;;;;;5054806;28;20425;-71
2023/12/06 13:50:24;;;;;;;1.87;1.60;;;;;;;;;;5054787;28;20426;-72
2023/12/06 13:52:50;;;;;;;2.20;2.00;;;;;;;;;;5054642;28;20426;-71
2023/12/06 13:55:16;;;;;;;3.17;2.90;;;;;;;;;;5054650;28;20727;-71
2023/12/06 13:57:44;;;;;;;1.93;1.67;;;;;;;;;;5054297;28;20418;-71
2023/12/06 14:00:10;;;;;;;1.70;1.67;;;;;;;;;;5054595;28;20406;-71
2023/12/06 14:02:36;;;;;;;3.03;1.43;;;;;;;;;;5054117;28;20470;-71
2023/12/06 14:05:02;;;;;;;2.10;2.00;;;;;;;;;;5054192;28;20468;-71
2023/12/06 14:07:28;;;;;;;1.40;1.40;;;;;;;;;;5054474;28;20415;-72
2023/12/06 14:09:54;;;;;;;2.17;2.17;;;;;;;;;;5054085;28;20406;-71
2023/12/06 14:12:20;;;;;;;1.87;1.77;;;;;;;;;;5054057;28;20496;-71
2023/12/06 14:14:46;;;;;;;3.57;2.50;;;;;;;;;;5053967;28;20411;-72
2023/12/06 14:17:12;;;;;;;3.50;3.37;;;;;;;;;;5054317;28;20422;-71
2023/12/06 14:19:38;;;;;;;1.80;1.70;;;;;;;;;;5053910;28;20415;-71
2023/12/06 14:22:04;;;;;;;3.60;1.50;;;;;;;;;;5053834;28;20477;-71
2023/12/06 14:24:30;;;;;;;2.07;2.07;;;;;;;;;;5054033;28;20480;-72
2023/12/06 14:26:56;;;;;;;1.83;1.73;;;;;;;;;;5054015;28;20450;-71
2023/12/06 14:29:22;;;;;;;2.10;2.00;;;;;;;;;;5053788;28;20418;-71
2023/12/06 14:31:48;;;;;;;2.27;2.27;;;;;;;;;;5054043;28;20505;-72
2023/12/06 14:34:15;;;;;;;1.77;1.63;;;;;;;;;;5053804;28;20410;-71
2023/12/06 14:36:40;;;;;;;1.77;1.77;;;;;;;;;;5053905;28;20786;-71
2023/12/06 14:39:10;;;;;;;1.67;1.67;;;;;;;;;;5054023;28;20895;-72
2023/12/06 14:41:37;;;;;;;3.70;2.60;;;;;;;;;;5054735;28;20945;-71
2023/12/06 14:44:04;;;;;;;4.63;3.20;;;;;;;;;;5053469;28;20422;-71
2023/12/06 14:46:30;;;;;;;5.23;4.77;;;;;;;;;;5053742;28;20501;-72